Time;durP1;ratioP1;P1;durP2;ratioP2;P2;SDS_P1;SDS_P2;PMS_P1;PMS_P2;Temp;Humidity;BMP_temperature;BMP_pressure;BME280_temperature;BME280_humidity;BME280_pressure;Samples;Min_cycle;Max_cycle;Signal;HPM_P1;HPM_P2
2021/12/14 00:01:55;;;;;;;3.17;2.47;;;21.40;35.40;;;;;;5108336;27;46820;-18
2021/12/14 00:04:24;;;;;;;2.95;2.65;;;21.30;35.40;;;;;;5108286;27;47925;-18
2021/12/14 00:06:53;;;;;;;2.85;2.55;;;21.40;35.40;;;;;;5107892;27;46924;-17
2021/12/14 00:09:25;;;;;;;2.78;2.53;;;21.30;35.40;;;;;;5107952;27;47106;-19
2021/12/14 00:12:07;;;;;;;2.60;2.40;;;21.30;35.40;;;;;;5108287;27;46910;-17
2021/12/14 00:17:21;;;;;;;3.63;2.65;;;21.40;35.40;;;;;;5105248;27;46775;-18
2021/12/14 00:19:48;;;;;;;2.60;2.40;;;21.40;35.40;;;;;;5108348;27;46921;-18
2021/12/14 00:22:29;;;;;;;3.45;2.40;;;21.40;35.30;;;;;;5108324;27;47157;-18
2021/12/14 00:24:55;;;;;;;3.03;2.45;;;21.40;35.40;;;;;;5107928;27;47835;-17
2021/12/14 00:27:23;;;;;;;2.80;2.60;;;21.40;35.30;;;;;;5107853;27;46739;-18
2021/12/14 00:29:51;;;;;;;3.40;2.83;;;21.40;35.40;;;;;;5107644;27;46797;-18
2021/12/14 00:32:20;;;;;;;2.90;2.60;;;21.40;35.30;;;;;;5107809;27;47313;-18
2021/12/14 00:34:47;;;;;;;2.80;2.53;;;21.40;35.40;;;;;;5107488;27;48374;-18
2021/12/14 00:37:18;;;;;;;2.80;2.53;;;21.40;35.30;;;;;;5107513;27;46963;-18
2021/12/14 00:39:45;;;;;;;3.17;2.70;;;21.40;35.40;;;;;;5107621;27;46931;-27
2021/12/14 00:42:11;;;;;;;2.78;2.42;;;21.40;35.30;;;;;;5107890;27;47267;-27
2021/12/14 00:44:38;;;;;;;3.05;2.50;;;21.40;35.30;;;;;;5107610;27;48086;-27
2021/12/14 00:47:05;;;;;;;3.53;2.78;;;21.40;35.40;;;;;;5107485;27;47261;-26
2021/12/14 00:49:33;;;;;;;3.08;2.75;;;21.40;35.40;;;;;;5107248;27;46885;-27
2021/12/14 00:51:59;;;;;;;2.80;2.60;;;21.40;35.30;;;;;;5106815;27;46777;-27
2021/12/14 00:54:27;;;;;;;3.97;2.70;;;21.40;35.40;;;;;;5107490;27;49041;-27
2021/12/14 00:56:54;;;;;;;3.17;2.88;;;21.40;35.50;;;;;;5107091;27;47141;-27
2021/12/14 00:59:21;;;;;;;4.38;2.88;;;21.40;35.30;;;;;;5107363;27;46872;-26
2021/12/14 01:01:50;;;;;;;2.80;2.47;;;21.40;35.40;;;;;;5107419;27;47205;-27
2021/12/14 01:04:19;;;;;;;2.83;2.35;;;21.40;35.30;;;;;;5107394;27;47775;-26
2021/12/14 01:06:46;;;;;;;2.88;2.58;;;21.40;35.30;;;;;;5106909;27;46872;-27
2021/12/14 01:09:14;;;;;;;2.75;2.50;;;21.40;35.30;;;;;;5107080;27;46840;-26
2021/12/14 01:11:45;;;;;;;3.35;2.63;;;21.40;35.30;;;;;;5107588;27;47146;-26
2021/12/14 01:14:18;;;;;;;2.40;2.20;;;21.40;35.30;;;;;;5107439;27;47129;-27
2021/12/14 01:16:53;;;;;;;3.08;2.38;;;21.40;35.30;;;;;;5107187;27;46873;-26
2021/12/14 01:19:25;;;;;;;2.63;2.42;;;21.40;35.30;;;;;;5107009;27;46892;-27
2021/12/14 01:22:16;;;;;;;2.65;2.42;;;21.40;35.30;;;;;;5106901;27;46768;-27
2021/12/14 01:27:40;;;;;;;2.42;2.20;;;21.40;35.30;;;;;;5102819;27;47151;-27
2021/12/14 01:30:18;;;;;;;2.90;2.40;;;21.40;35.30;;;;;;5106951;27;46816;-27
2021/12/14 01:32:46;;;;;;;3.20;2.50;;;21.40;35.30;;;;;;5107056;27;47217;-27
2021/12/14 01:35:13;;;;;;;2.60;2.40;;;21.40;35.20;;;;;;5106419;27;48137;-27
2021/12/14 01:37:46;;;;;;;2.55;2.35;;;21.40;35.20;;;;;;5106557;27;46893;-27
2021/12/14 01:40:29;;;;;;;2.53;2.33;;;21.40;35.20;;;;;;5106470;27;46907;-27
2021/12/14 01:42:57;;;;;;;2.67;2.30;;;21.40;35.20;;;;;;5106840;27;47062;-27
2021/12/14 01:45:24;;;;;;;2.80;2.50;;;21.40;35.20;;;;;;5106141;27;48785;-27
2021/12/14 01:47:52;;;;;;;2.55;2.35;;;21.40;35.20;;;;;;5106285;27;46836;-26
2021/12/14 01:50:24;;;;;;;2.88;2.35;;;21.40;35.20;;;;;;5106499;27;46960;-27
2021/12/14 01:52:50;;;;;;;2.65;2.45;;;21.40;35.30;;;;;;5106902;27;46999;-27
2021/12/14 01:55:20;;;;;;;2.80;2.50;;;21.40;35.30;;;;;;5105619;27;48222;-26
2021/12/14 01:57:47;;;;;;;3.00;2.30;;;21.40;35.30;;;;;;5106560;27;47033;-26
2021/12/14 02:00:17;;;;;;;2.97;2.30;;;21.40;35.30;;;;;;5106311;27;46853;-27
2021/12/14 02:02:45;;;;;;;2.47;2.30;;;21.40;35.30;;;;;;5106518;27;46947;-27
2021/12/14 02:05:17;;;;;;;2.40;2.20;;;21.40;35.20;;;;;;5105162;27;48852;-27
2021/12/14 02:07:44;;;;;;;2.90;2.50;;;21.40;35.20;;;;;;5106400;27;47466;-26
2021/12/14 02:10:13;;;;;;;2.42;2.22;;;21.40;35.20;;;;;;5106071;27;46834;-27
2021/12/14 02:12:41;;;;;;;2.22;2.03;;;21.40;35.20;;;;;;5106280;27;47273;-26
2021/12/14 02:15:11;;;;;;;2.38;2.00;;;21.40;35.20;;;;;;5106248;27;49009;-27
2021/12/14 02:17:40;;;;;;;2.40;2.20;;;21.40;35.20;;;;;;5106586;27;47675;-27
2021/12/14 02:20:08;;;;;;;2.53;2.22;;;21.40;35.20;;;;;;5106030;27;46994;-27
2021/12/14 02:22:36;;;;;;;2.40;2.20;;;21.40;35.10;;;;;;5106470;27;46834;-26
2021/12/14 02:25:03;;;;;;;2.58;2.05;;;21.40;35.20;;;;;;5105782;27;49045;-27
2021/12/14 02:27:35;;;;;;;2.10;1.90;;;21.40;35.10;;;;;;5106071;27;46910;-27
2021/12/14 02:30:05;;;;;;;2.50;2.10;;;21.40;35.20;;;;;;5105683;27;46911;-27
2021/12/14 02:32:32;;;;;;;2.10;1.90;;;21.40;35.10;;;;;;5106030;27;46880;-27
2021/12/14 02:35:00;;;;;;;2.13;1.92;;;21.40;35.10;;;;;;5105911;27;48875;-27
2021/12/14 02:37:37;;;;;;;1.98;1.83;;;21.40;35.10;;;;;;5105735;27;47113;-26
2021/12/14 02:40:14;;;;;;;2.03;1.92;;;21.40;35.10;;;;;;5105554;27;46856;-27
2021/12/14 02:42:40;;;;;;;1.98;1.88;;;21.40;35.00;;;;;;5106164;27;47066;-27
2021/12/14 02:45:08;;;;;;;1.77;1.67;;;21.40;35.10;;;;;;5105788;27;47005;-27
2021/12/14 02:47:34;;;;;;;2.47;1.85;;;21.40;35.10;;;;;;5105701;27;47142;-26
2021/12/14 02:50:01;;;;;;;2.03;1.83;;;21.40;35.10;;;;;;5105333;27;46899;-26
2021/12/14 02:52:33;;;;;;;2.05;1.80;;;21.40;35.10;;;;;;5106012;27;47121;-27
2021/12/14 02:55:03;;;;;;;1.95;1.70;;;21.40;35.00;;;;;;5105178;27;48819;-27
2021/12/14 02:57:31;;;;;;;1.67;1.52;;;21.40;35.00;;;;;;5105767;27;47427;-27
2021/12/14 02:59:58;;;;;;;1.60;1.50;;;21.40;35.00;;;;;;5105739;27;46976;-27
2021/12/14 03:02:26;;;;;;;1.52;1.42;;;21.40;35.00;;;;;;5105884;27;47248;-27
2021/12/14 03:04:54;;;;;;;1.63;1.52;;;21.50;35.00;;;;;;5105220;27;48145;-27
2021/12/14 03:07:24;;;;;;;1.70;1.60;;;21.40;35.00;;;;;;5105579;27;46811;-27
2021/12/14 03:09:58;;;;;;;1.45;1.35;;;21.40;35.00;;;;;;5105469;27;46880;-27
2021/12/14 03:12:30;;;;;;;1.83;1.70;;;21.40;34.90;;;;;;5105885;27;46906;-26
2021/12/14 03:14:59;;;;;;;2.22;1.75;;;21.40;35.10;;;;;;5105878;27;48053;-27
2021/12/14 03:17:25;;;;;;;1.77;1.60;;;21.40;34.90;;;;;;5109100;27;46866;-27
2021/12/14 03:19:56;;;;;;;1.60;1.50;;;21.40;34.90;;;;;;5108792;27;46927;-27
2021/12/14 03:22:25;;;;;;;1.60;1.50;;;21.40;34.90;;;;;;5109274;27;46818;-27
2021/12/14 03:24:52;;;;;;;1.70;1.60;;;21.40;34.90;;;;;;5108589;27;46841;-27
2021/12/14 03:27:18;;;;;;;1.85;1.58;;;21.40;34.80;;;;;;5108949;27;46953;-27
2021/12/14 03:29:46;;;;;;;1.88;1.70;;;21.40;34.90;;;;;;5108505;27;46962;-27
2021/12/14 03:32:13;;;;;;;1.73;1.55;;;21.40;34.90;;;;;;5109073;27;46884;-27
2021/12/14 03:34:40;;;;;;;1.70;1.60;;;21.40;34.80;;;;;;5108793;27;47811;-27
2021/12/14 03:37:08;;;;;;;1.60;1.50;;;21.40;34.80;;;;;;5108475;27;47498;-26
2021/12/14 03:39:36;;;;;;;1.73;1.63;;;21.40;34.80;;;;;;5108806;27;46814;-26
2021/12/14 03:42:05;;;;;;;1.55;1.45;;;21.40;34.80;;;;;;5108559;27;46902;-27
2021/12/14 03:44:33;;;;;;;1.80;1.70;;;21.40;34.80;;;;;;5108808;27;48814;-27
2021/12/14 03:47:03;;;;;;;1.60;1.50;;;21.40;34.70;;;;;;5108102;27;47437;-27
2021/12/14 03:49:33;;;;;;;2.05;1.63;;;21.40;34.60;;;;;;5108717;27;46981;-27
2021/12/14 03:52:00;;;;;;;1.92;1.70;;;21.40;34.60;;;;;;5108487;27;47128;-27
2021/12/14 03:54:27;;;;;;;1.90;1.80;;;21.40;34.70;;;;;;5108301;27;47743;-27
2021/12/14 03:56:54;;;;;;;1.80;1.70;;;21.40;34.60;;;;;;5107974;27;47160;-27
2021/12/14 03:59:21;;;;;;;2.22;1.60;;;21.50;34.60;;;;;;5108528;27;46934;-27
2021/12/14 04:01:48;;;;;;;2.00;1.80;;;21.40;34.60;;;;;;5108424;27;46884;-27
2021/12/14 04:04:19;;;;;;;1.88;1.77;;;21.40;34.60;;;;;;5108349;27;48120;-26
2021/12/14 04:06:47;;;;;;;1.80;1.70;;;21.40;34.70;;;;;;5108262;27;47505;-27
2021/12/14 04:09:15;;;;;;;2.20;2.00;;;21.40;34.60;;;;;;5107980;27;47001;-27
2021/12/14 04:11:42;;;;;;;1.90;1.70;;;21.40;34.60;;;;;;5108332;27;47253;-26
2021/12/14 04:14:09;;;;;;;2.30;1.98;;;21.40;34.70;;;;;;5108096;27;46887;-26
2021/12/14 04:16:35;;;;;;;2.30;2.10;;;21.40;34.60;;;;;;5108192;27;46869;-17
2021/12/14 04:19:05;;;;;;;2.20;2.00;;;21.40;34.60;;;;;;5108211;27;47102;-18
2021/12/14 04:21:34;;;;;;;2.22;1.92;;;21.40;34.50;;;;;;5108169;27;46939;-17
2021/12/14 04:24:00;;;;;;;2.72;1.83;;;21.40;34.50;;;;;;5107944;27;46932;-17
2021/12/14 04:26:27;;;;;;;3.00;2.10;;;21.40;34.50;;;;;;5107181;27;46957;-18
2021/12/14 04:28:55;;;;;;;2.47;2.28;;;21.40;34.60;;;;;;5107638;27;46870;-18
2021/12/14 04:31:22;;;;;;;2.05;1.95;;;21.40;34.50;;;;;;5108112;27;47265;-19
2021/12/14 04:33:49;;;;;;;2.55;2.05;;;21.50;34.50;;;;;;5107462;27;47041;-18
2021/12/14 04:36:18;;;;;;;2.28;1.98;;;21.40;34.50;;;;;;5107755;27;46985;-18
2021/12/14 04:38:52;;;;;;;2.20;2.00;;;21.40;35.10;;;;;;5107606;27;46879;-19
2021/12/14 04:52:19;;;;;;;2.47;2.03;;;21.40;34.60;;;;;;5105023;27;46835;-17
2021/12/14 04:54:48;;;;;;;2.22;2.03;;;21.40;34.50;;;;;;5107444;27;48080;-27
2021/12/14 04:57:21;;;;;;;2.30;2.10;;;21.40;34.60;;;;;;5107643;27;47492;-27
2021/12/14 04:59:48;;;;;;;2.45;2.00;;;21.40;34.60;;;;;;5107547;27;46877;-27
2021/12/14 05:02:16;;;;;;;2.10;2.00;;;21.40;35.20;;;;;;5107359;27;46885;-27
2021/12/14 05:04:43;;;;;;;1.90;1.80;;;21.40;34.60;;;;;;5107261;27;47075;-26
2021/12/14 05:07:28;;;;;;;3.25;2.50;;;21.40;34.60;;;;;;5107428;27;47235;-27
2021/12/14 05:09:55;;;;;;;2.30;2.10;;;21.40;34.50;;;;;;5107036;27;46910;-27
2021/12/14 05:12:24;;;;;;;2.30;2.10;;;21.40;34.60;;;;;;5107511;27;46906;-27
2021/12/14 05:14:50;;;;;;;2.63;2.42;;;21.40;34.60;;;;;;5107104;27;49138;-27
2021/12/14 05:17:18;;;;;;;2.10;2.00;;;21.40;34.60;;;;;;5106851;27;46862;-26
2021/12/14 05:19:46;;;;;;;2.10;2.00;;;21.40;34.60;;;;;;5107123;27;46852;-27
2021/12/14 05:22:14;;;;;;;2.10;2.00;;;21.40;34.50;;;;;;5107205;27;47261;-26
2021/12/14 05:24:41;;;;;;;2.25;2.15;;;21.50;34.70;;;;;;5106615;27;48817;-26
2021/12/14 05:27:10;;;;;;;1.92;1.83;;;21.40;34.60;;;;;;5107039;27;47195;-26
2021/12/14 05:29:39;;;;;;;1.98;1.80;;;21.40;34.60;;;;;;5106707;27;46879;-26
2021/12/14 05:32:07;;;;;;;2.03;1.90;;;21.40;34.60;;;;;;5107117;27;47099;-27
2021/12/14 05:34:33;;;;;;;2.20;2.10;;;21.40;34.60;;;;;;5106891;27;48948;-27
2021/12/14 05:37:00;;;;;;;2.10;2.00;;;21.40;34.60;;;;;;5106494;27;47075;-27
2021/12/14 05:44:53;;;;;;;2.20;2.10;;;21.40;34.60;;;;;;5103714;27;46939;-18
2021/12/14 05:47:20;;;;;;;2.22;2.03;;;21.40;34.50;;;;;;5106712;27;47282;-18
2021/12/14 05:49:48;;;;;;;2.33;2.13;;;21.40;34.50;;;;;;5106218;27;47003;-18
2021/12/14 05:52:16;;;;;;;2.42;2.22;;;21.40;34.50;;;;;;5106574;27;47174;-18
2021/12/14 05:54:43;;;;;;;2.40;2.20;;;21.50;34.60;;;;;;5106438;27;47955;-19
2021/12/14 05:57:14;;;;;;;2.35;2.15;;;21.40;34.60;;;;;;5106413;27;47164;-18
2021/12/14 05:59:40;;;;;;;2.63;2.00;;;21.40;34.60;;;;;;5106711;27;47021;-27
2021/12/14 06:02:08;;;;;;;2.60;2.38;;;21.50;34.50;;;;;;5106658;27;46857;-18
2021/12/14 06:04:36;;;;;;;2.33;2.13;;;21.40;34.50;;;;;;5106350;27;46996;-18
2021/12/14 06:07:03;;;;;;;2.28;2.10;;;21.40;34.50;;;;;;5106299;27;47121;-18
2021/12/14 06:09:32;;;;;;;2.28;2.08;;;21.40;34.60;;;;;;5106122;27;46890;-18
2021/12/14 06:12:00;;;;;;;2.67;2.47;;;21.50;34.50;;;;;;5106435;27;46777;-17
2021/12/14 06:14:29;;;;;;;2.40;2.20;;;21.50;34.50;;;;;;5106231;27;47946;-17
2021/12/14 06:16:57;;;;;;;2.25;2.08;;;21.50;34.50;;;;;;5105818;27;46898;-18
2021/12/14 06:19:25;;;;;;;2.40;2.20;;;21.40;34.50;;;;;;5106380;27;46927;-18
2021/12/14 06:21:54;;;;;;;2.30;2.10;;;21.40;34.50;;;;;;5106031;27;46798;-17
2021/12/14 06:24:22;;;;;;;2.13;2.03;;;21.50;34.50;;;;;;5106062;27;48226;-19
2021/12/14 06:26:50;;;;;;;2.17;1.98;;;21.50;34.50;;;;;;5105879;27;46984;-18
2021/12/14 06:29:18;;;;;;;2.35;2.15;;;21.50;34.50;;;;;;5105795;27;46986;-19
2021/12/14 06:31:46;;;;;;;2.45;2.25;;;21.50;35.20;;;;;;5105922;27;47046;-18
2021/12/14 06:34:16;;;;;;;2.88;2.50;;;21.50;34.50;;;;;;5106059;27;46895;-18
2021/12/14 06:38:05;;;;;;;2.20;2.05;;;21.50;34.50;;;;;;5105448;27;46812;-19
2021/12/14 06:40:33;;;;;;;2.13;2.00;;;21.50;34.50;;;;;;5105802;27;46819;-27
2021/12/14 06:43:01;;;;;;;2.05;1.83;;;21.50;34.60;;;;;;5105285;27;47368;-27
2021/12/14 06:45:29;;;;;;;2.40;2.20;;;21.50;34.50;;;;;;5105612;27;47825;-27
2021/12/14 06:48:00;;;;;;;2.40;2.20;;;21.50;34.50;;;;;;5105659;27;46880;-27
2021/12/14 06:50:30;;;;;;;2.40;2.20;;;21.50;34.50;;;;;;5106142;27;46836;-27
2021/12/14 06:52:59;;;;;;;2.38;2.17;;;21.50;34.60;;;;;;5109732;27;47167;-27
2021/12/14 06:55:26;;;;;;;2.10;1.90;;;21.50;34.50;;;;;;5108854;27;48321;-27
2021/12/14 06:57:53;;;;;;;2.53;2.33;;;21.50;34.50;;;;;;5109108;27;46910;-27
2021/12/14 07:00:20;;;;;;;2.40;2.20;;;21.50;34.50;;;;;;5109288;27;46895;-27
2021/12/14 07:02:48;;;;;;;2.25;2.13;;;21.50;34.60;;;;;;5109307;27;47364;-27
2021/12/14 07:05:20;;;;;;;2.40;2.20;;;21.50;34.60;;;;;;5108999;27;48862;-28
2021/12/14 07:07:47;;;;;;;2.25;2.05;;;21.50;34.50;;;;;;5109007;27;46834;-27
2021/12/14 07:10:15;;;;;;;2.55;2.33;;;21.50;34.50;;;;;;5109107;27;47049;-27
2021/12/14 07:12:42;;;;;;;2.85;2.30;;;21.50;34.50;;;;;;5109586;27;46886;-27
2021/12/14 07:15:12;;;;;;;1.90;1.80;;;21.50;34.50;;;;;;5108629;27;47819;-27
2021/12/14 07:17:44;;;;;;;2.20;2.00;;;21.50;34.60;;;;;;5109187;27;46751;-27
2021/12/14 07:20:25;;;;;;;2.10;2.00;;;21.50;34.60;;;;;;5108952;27;46953;-27
2021/12/14 07:22:52;;;;;;;2.40;2.20;;;21.50;34.50;;;;;;5103363;27;47333;-27
2021/12/14 07:25:23;;;;;;;2.25;2.10;;;21.50;34.50;;;;;;5098742;27;46986;-18
2021/12/14 07:27:50;;;;;;;2.42;2.22;;;21.50;34.30;;;;;;5106914;27;47087;-18
2021/12/14 07:30:20;;;;;;;2.78;2.58;;;21.50;34.50;;;;;;5109029;27;46871;-17
2021/12/14 07:33:03;;;;;;;2.45;2.25;;;21.50;34.50;;;;;;5109198;27;46938;-18
2021/12/14 07:35:49;;;;;;;2.78;2.58;;;21.50;34.60;;;;;;5108327;27;46988;-17
2021/12/14 07:38:35;;;;;;;2.03;1.92;;;21.50;34.60;;;;;;5108555;27;47386;-17
2021/12/14 07:41:14;;;;;;;2.30;2.10;;;21.50;34.60;;;;;;5108497;27;47171;-19
2021/12/14 07:43:45;;;;;;;2.80;2.40;;;21.50;34.60;;;;;;5108756;27;47048;-18
2021/12/14 07:46:21;;;;;;;2.50;2.30;;;21.50;34.60;;;;;;5108194;27;47164;-18
2021/12/14 07:48:50;;;;;;;2.63;2.40;;;21.50;34.40;;;;;;5103924;27;47280;-18
2021/12/14 07:51:20;;;;;;;2.50;2.30;;;21.50;34.60;;;;;;5087153;28;47016;-17
2021/12/14 07:54:24;;;;;;;2.90;2.50;;;21.50;34.50;;;;;;5091577;27;47061;-18
2021/12/14 07:56:51;;;;;;;2.72;2.53;;;21.50;34.40;;;;;;5086417;28;48869;-17
2021/12/14 07:59:22;;;;;;;2.90;2.60;;;21.50;34.50;;;;;;5085996;28;47039;-17
2021/12/14 08:01:49;;;;;;;2.72;2.53;;;21.50;34.60;;;;;;5087083;27;46963;-17
2021/12/14 08:04:15;;;;;;;3.20;2.90;;;21.50;34.60;;;;;;5087670;28;47070;-18
2021/12/14 08:06:49;;;;;;;3.53;3.22;;;21.50;34.50;;;;;;5087301;28;47847;-17
2021/12/14 08:09:19;;;;;;;3.50;3.17;;;21.50;34.50;;;;;;5087797;28;46899;-18
2021/12/14 08:11:48;;;;;;;2.92;2.60;;;21.50;34.50;;;;;;5087815;27;46879;-17
2021/12/14 08:14:19;;;;;;;3.47;3.17;;;21.50;34.60;;;;;;5096234;27;46841;-17
2021/12/14 08:16:48;;;;;;;3.33;3.03;;;21.50;34.50;;;;;;5106928;27;48029;-18
2021/12/14 08:19:16;;;;;;;2.83;2.63;;;21.60;34.60;;;;;;5106229;27;47338;-17
2021/12/14 08:21:44;;;;;;;3.33;3.03;;;21.50;34.50;;;;;;5106201;27;46854;-18
2021/12/14 08:24:12;;;;;;;3.63;2.85;;;21.60;34.60;;;;;;5107656;27;46920;-17
2021/12/14 08:26:40;;;;;;;3.22;2.88;;;21.50;34.60;;;;;;5091637;27;48120;-18
2021/12/14 08:29:08;;;;;;;3.80;3.30;;;21.60;34.60;;;;;;5086859;27;47241;-18
2021/12/14 08:31:39;;;;;;;2.85;2.50;;;21.60;34.60;;;;;;5086970;27;46771;-17
2021/12/14 08:34:07;;;;;;;3.00;2.70;;;21.60;34.60;;;;;;5087544;27;47225;-17
2021/12/14 08:36:35;;;;;;;3.10;2.80;;;21.60;34.70;;;;;;5087114;27;47921;-17
2021/12/14 08:39:05;;;;;;;3.67;2.90;;;21.60;34.60;;;;;;5087486;27;47048;-18
2021/12/14 08:41:33;;;;;;;3.15;2.85;;;21.60;34.60;;;;;;5087045;27;46814;-17
2021/12/14 08:44:08;;;;;;;3.35;3.05;;;21.60;34.60;;;;;;5087424;27;47108;-18
2021/12/14 08:46:35;;;;;;;3.35;3.05;;;21.60;34.70;;;;;;5086960;27;46798;-17
2021/12/14 08:49:05;;;;;;;4.13;3.38;;;21.60;34.60;;;;;;5087250;27;47235;-17
2021/12/14 08:51:34;;;;;;;4.05;3.40;;;21.60;34.60;;;;;;5087063;27;46862;-17
2021/12/14 08:54:15;;;;;;;4.53;3.40;;;21.60;34.60;;;;;;5086232;27;46988;-17
2021/12/14 08:56:47;;;;;;;3.30;3.00;;;21.60;34.40;;;;;;5084002;27;46869;-17
2021/12/14 08:59:14;;;;;;;3.50;3.20;;;21.60;34.60;;;;;;5084967;27;47202;-18
2021/12/14 09:01:42;;;;;;;4.90;3.67;;;21.60;34.70;;;;;;5088499;27;47067;-17
2021/12/14 09:04:21;;;;;;;3.95;3.40;;;21.60;34.60;;;;;;5094108;27;47094;-17
2021/12/14 09:06:50;;;;;;;3.78;3.47;;;21.60;34.60;;;;;;5085181;27;48786;-17
2021/12/14 09:09:19;;;;;;;3.40;3.10;;;21.60;34.60;;;;;;5093262;27;47024;-18
2021/12/14 09:11:48;;;;;;;4.57;3.42;;;21.60;34.50;;;;;;5094795;27;47035;-18
2021/12/14 09:14:16;;;;;;;3.92;3.38;;;21.70;34.70;;;;;;5093252;27;46865;-18
2021/12/14 09:16:47;;;;;;;3.75;3.40;;;21.70;34.70;;;;;;5086099;27;49112;-16
2021/12/14 09:19:18;;;;;;;4.55;3.78;;;21.70;34.70;;;;;;5094819;27;46985;-17
2021/12/14 09:21:49;;;;;;;3.97;3.38;;;21.70;34.30;;;;;;5094277;27;46817;-18
2021/12/14 09:24:18;;;;;;;3.65;3.25;;;21.70;34.40;;;;;;5094892;27;47613;-18
2021/12/14 09:26:51;;;;;;;4.35;3.88;;;21.70;34.60;;;;;;5086275;27;47129;-18
2021/12/14 09:29:19;;;;;;;4.75;3.25;;;21.70;34.60;;;;;;5094116;27;46906;-18
2021/12/14 09:31:49;;;;;;;4.00;3.33;;;21.70;34.50;;;;;;5094235;27;46908;-18
2021/12/14 09:34:17;;;;;;;4.43;3.72;;;21.70;34.40;;;;;;5094224;27;48094;-18
2021/12/14 09:36:43;;;;;;;4.63;3.60;;;21.70;34.60;;;;;;5093749;27;48863;-18
2021/12/14 09:39:12;;;;;;;4.45;3.80;;;21.70;34.70;;;;;;5093367;27;46957;-18
2021/12/14 09:41:39;;;;;;;4.68;3.85;;;21.70;34.70;;;;;;5088200;27;46929;-17
2021/12/14 09:44:08;;;;;;;5.13;3.92;;;21.70;34.80;;;;;;5106656;27;47314;-17
2021/12/14 09:46:36;;;;;;;4.45;3.80;;;21.70;34.70;;;;;;5106444;27;48078;-17
2021/12/14 09:49:04;;;;;;;4.40;4.00;;;21.70;34.70;;;;;;5106363;27;47200;-18
2021/12/14 09:51:34;;;;;;;5.68;4.20;;;21.80;34.70;;;;;;5106410;27;46875;-27
2021/12/14 09:54:02;;;;;;;4.35;3.65;;;21.80;34.70;;;;;;5106547;27;46990;-27
2021/12/14 09:56:42;;;;;;;5.22;3.90;;;21.80;34.80;;;;;;5105503;27;48215;-27
2021/12/14 09:59:11;;;;;;;4.30;3.60;;;21.80;34.70;;;;;;5101153;27;46960;-28
2021/12/14 10:01:39;;;;;;;4.43;3.80;;;21.80;34.70;;;;;;5084737;27;47111;-27
2021/12/14 10:04:08;;;;;;;5.57;3.63;;;21.80;34.70;;;;;;5083265;28;46994;-27
2021/12/14 10:06:35;;;;;;;4.32;3.92;;;21.80;34.70;;;;;;5084046;27;48110;-26
2021/12/14 10:09:05;;;;;;;5.20;3.95;;;21.80;34.70;;;;;;5084938;28;46889;-27
2021/12/14 10:11:41;;;;;;;4.82;3.97;;;21.80;34.70;;;;;;5085929;28;46896;-27
2021/12/14 10:14:15;;;;;;;4.20;3.80;;;21.90;34.70;;;;;;5086175;28;47038;-27
2021/12/14 10:16:41;;;;;;;6.43;4.10;;;21.90;34.70;;;;;;5085415;28;48124;-26
2021/12/14 10:19:12;;;;;;;5.57;3.95;;;21.80;34.70;;;;;;5085620;28;47165;-26
2021/12/14 10:21:41;;;;;;;4.20;3.72;;;21.90;34.80;;;;;;5085368;28;47036;-27
2021/12/14 10:24:08;;;;;;;4.75;3.95;;;21.90;34.80;;;;;;5085419;28;46934;-27
2021/12/14 10:26:37;;;;;;;4.63;3.75;;;21.90;34.80;;;;;;5084434;28;48208;-27
2021/12/14 10:29:05;;;;;;;4.20;3.83;;;21.90;34.70;;;;;;5085431;28;47085;-27
2021/12/14 10:31:37;;;;;;;6.38;4.40;;;21.90;34.80;;;;;;5084822;28;46972;-27
2021/12/14 10:34:05;;;;;;;5.43;4.13;;;21.90;34.80;;;;;;5084113;28;46994;-27
2021/12/14 10:36:36;;;;;;;4.95;4.45;;;22.00;34.80;;;;;;5083333;28;47882;-27
2021/12/14 10:39:21;;;;;;;5.75;3.90;;;22.00;34.80;;;;;;5083707;28;47269;-27
2021/12/14 10:44:40;;;;;;;5.82;4.15;;;22.00;34.80;;;;;;5080132;27;47232;-28
2021/12/14 10:47:08;;;;;;;4.38;3.83;;;22.00;34.80;;;;;;5083800;27;47060;-18
2021/12/14 10:49:35;;;;;;;4.63;4.18;;;22.00;34.80;;;;;;5084759;28;46951;-17
2021/12/14 10:52:04;;;;;;;4.80;3.97;;;22.00;34.80;;;;;;5084848;28;47026;-18
2021/12/14 10:54:31;;;;;;;5.68;3.78;;;21.90;34.80;;;;;;5085293;28;46880;-18
2021/12/14 10:56:59;;;;;;;4.30;3.90;;;21.90;34.80;;;;;;5084509;28;49069;-18
2021/12/14 10:59:28;;;;;;;4.13;3.72;;;22.00;34.90;;;;;;5085268;28;46950;-17
2021/12/14 11:01:55;;;;;;;4.72;3.70;;;22.00;34.90;;;;;;5085071;28;46892;-18
2021/12/14 11:04:26;;;;;;;4.32;3.92;;;21.90;34.90;;;;;;5085429;28;46873;-18
2021/12/14 11:06:53;;;;;;;4.55;4.10;;;21.90;34.90;;;;;;5084687;28;48753;-18
2021/12/14 11:09:45;;;;;;;4.95;3.95;;;21.90;34.90;;;;;;5085057;28;46892;-18
2021/12/14 11:12:18;;;;;;;4.82;4.07;;;22.00;34.90;;;;;;5085400;28;46927;-18
2021/12/14 11:14:45;;;;;;;4.40;3.97;;;21.90;34.90;;;;;;5085126;28;46907;-19
2021/12/14 11:20:00;;;;;;;3.85;3.53;;;21.90;34.90;;;;;;5082068;28;46977;-18
2021/12/14 11:22:28;;;;;;;4.45;4.00;;;22.00;34.90;;;;;;5085214;28;46818;-18
2021/12/14 11:24:56;;;;;;;4.78;4.15;;;22.00;34.90;;;;;;5085038;28;46822;-17
2021/12/14 11:27:26;;;;;;;3.88;3.50;;;22.00;34.80;;;;;;5084515;28;49074;-18
2021/12/14 11:30:07;;;;;;;4.03;3.70;;;22.00;34.80;;;;;;5084712;28;46817;-18
2021/12/14 11:32:34;;;;;;;3.85;3.50;;;22.00;34.80;;;;;;5084819;28;47000;-17
2021/12/14 11:35:03;;;;;;;3.92;3.53;;;22.00;34.80;;;;;;5084542;28;47120;-17
2021/12/14 11:37:34;;;;;;;4.32;3.75;;;22.00;34.80;;;;;;5086974;27;47931;-17
2021/12/14 11:40:01;;;;;;;4.20;3.80;;;22.00;34.90;;;;;;5087915;28;46891;-17
2021/12/14 11:42:28;;;;;;;4.22;3.83;;;22.00;34.80;;;;;;5087119;28;46861;-19
2021/12/14 11:44:56;;;;;;;3.80;3.40;;;22.00;34.90;;;;;;5088241;28;47314;-18
2021/12/14 11:47:41;;;;;;;3.97;3.63;;;22.00;34.80;;;;;;5088088;28;49090;-17
2021/12/14 11:50:15;;;;;;;3.53;3.22;;;22.00;34.90;;;;;;5087658;28;47403;-17
2021/12/14 11:52:50;;;;;;;4.45;3.70;;;22.00;35.00;;;;;;5088051;28;46922;-18
2021/12/14 11:55:30;;;;;;;4.00;3.60;;;22.00;34.90;;;;;;5087111;28;46894;-18
2021/12/14 11:58:13;;;;;;;3.70;3.40;;;22.00;34.90;;;;;;5086789;28;46894;-17
2021/12/14 12:00:41;;;;;;;3.53;3.22;;;22.00;34.90;;;;;;5087418;28;46795;-18
2021/12/14 12:03:24;;;;;;;4.10;3.70;;;22.00;34.90;;;;;;5087634;27;46802;-17
2021/12/14 12:06:02;;;;;;;3.85;3.55;;;22.00;35.00;;;;;;5085427;27;46877;-17
2021/12/14 12:11:15;;;;;;;3.72;3.30;;;22.10;35.00;;;;;;5086318;28;47011;-27
2021/12/14 12:13:42;;;;;;;4.00;3.58;;;22.00;35.00;;;;;;5087830;28;47275;-26
2021/12/14 12:16:10;;;;;;;3.97;3.40;;;22.00;35.00;;;;;;5087725;28;46815;-27
2021/12/14 12:18:37;;;;;;;3.90;3.55;;;22.00;35.00;;;;;;5087651;28;49063;-27
2021/12/14 12:21:05;;;;;;;3.90;3.50;;;22.10;35.10;;;;;;5087037;28;47096;-27
2021/12/14 12:23:33;;;;;;;4.05;3.60;;;22.10;35.00;;;;;;5086607;27;46923;-27
2021/12/14 12:26:08;;;;;;;4.57;4.13;;;22.10;35.10;;;;;;5086506;27;46940;-27
2021/12/14 12:28:37;;;;;;;3.95;3.63;;;22.10;35.00;;;;;;5086261;28;48240;-27
2021/12/14 12:31:10;;;;;;;3.90;3.50;;;22.10;35.70;;;;;;5087055;28;46988;-26
2021/12/14 12:33:38;;;;;;;4.57;3.70;;;22.10;35.00;;;;;;5087341;28;46744;-27
2021/12/14 12:36:09;;;;;;;3.75;3.45;;;22.10;35.00;;;;;;5087082;28;47163;-26
2021/12/14 12:38:42;;;;;;;3.90;3.60;;;22.10;35.00;;;;;;5087121;28;48752;-27
2021/12/14 12:41:12;;;;;;;4.30;3.80;;;22.10;35.10;;;;;;5086910;28;46891;-27
2021/12/14 12:43:41;;;;;;;4.03;3.63;;;22.10;35.10;;;;;;5087395;28;46884;-27
2021/12/14 12:46:14;;;;;;;3.95;3.40;;;22.10;35.10;;;;;;5087299;28;46894;-27
2021/12/14 12:48:46;;;;;;;4.07;3.70;;;22.10;35.10;;;;;;5085985;27;47963;-26
2021/12/14 12:51:38;;;;;;;4.68;3.65;;;22.10;35.10;;;;;;5086761;28;46827;-27
2021/12/14 12:54:16;;;;;;;4.07;3.67;;;22.10;35.10;;;;;;5086974;28;46980;-26
2021/12/14 12:56:43;;;;;;;3.78;3.42;;;22.10;35.10;;;;;;5086614;28;46785;-27
2021/12/14 12:59:10;;;;;;;4.03;3.47;;;22.10;35.10;;;;;;5086940;28;48809;-26
2021/12/14 13:01:37;;;;;;;3.60;3.30;;;22.10;35.10;;;;;;5086843;28;47163;-27
2021/12/14 13:04:04;;;;;;;3.95;3.58;;;22.10;35.10;;;;;;5087017;28;46790;-26
2021/12/14 13:06:32;;;;;;;4.05;3.58;;;22.10;35.10;;;;;;5086985;28;46884;-27
2021/12/14 13:09:00;;;;;;;3.80;3.50;;;22.10;35.10;;;;;;5086742;28;46897;-26
2021/12/14 13:11:28;;;;;;;3.78;3.45;;;22.10;35.20;;;;;;5086480;27;46819;-17
2021/12/14 13:13:57;;;;;;;3.83;3.35;;;22.10;35.10;;;;;;5086217;27;47066;-17
2021/12/14 13:16:24;;;;;;;3.67;3.38;;;22.10;35.10;;;;;;5085005;27;47179;-18
2021/12/14 13:18:53;;;;;;;3.30;3.00;;;22.10;35.10;;;;;;5088474;27;47913;-17
2021/12/14 13:21:26;;;;;;;4.03;3.55;;;22.10;35.00;;;;;;5101697;27;46926;-18
2021/12/14 13:23:58;;;;;;;4.05;3.65;;;22.10;35.10;;;;;;5090646;27;47031;-17
2021/12/14 13:26:28;;;;;;;4.50;3.40;;;22.10;35.20;;;;;;5100635;27;47085;-18
2021/12/14 13:29:00;;;;;;;4.20;3.80;;;22.10;35.20;;;;;;5090963;27;48373;-18
2021/12/14 13:31:29;;;;;;;4.65;3.75;;;22.10;35.20;;;;;;5092610;27;47065;-18
2021/12/14 13:33:55;;;;;;;4.50;4.10;;;22.10;35.40;;;;;;5087347;27;46788;-18